createdAt,value
2017-10-13T00:00:40.462Z,0
2017-10-13T00:01:40.405Z,0
2017-10-13T00:02:40.386Z,0
2017-10-13T00:03:40.369Z,0
2017-10-13T00:04:40.693Z,0
2017-10-13T00:05:41.057Z,0
2017-10-13T00:06:40.703Z,0
2017-10-13T00:07:40.655Z,0
2017-10-13T00:08:40.640Z,0
2017-10-13T00:09:40.948Z,0
2017-10-13T00:10:40.599Z,0
2017-10-13T00:11:40.250Z,0
2017-10-13T00:12:40.231Z,0
2017-10-13T00:13:39.888Z,0
2017-10-13T00:14:40.537Z,0
2017-10-13T00:15:40.519Z,0
2017-10-13T00:16:40.507Z,0
2017-10-13T00:17:40.493Z,0
2017-10-13T00:18:40.476Z,0
2017-10-13T00:19:39.789Z,0
2017-10-13T00:20:40.445Z,0
2017-10-13T00:21:40.430Z,0
2017-10-13T00:22:41.357Z,0
2017-10-13T00:23:40.069Z,0
2017-10-13T00:24:40.383Z,0
2017-10-13T00:25:40.415Z,0
2017-10-13T00:26:39.689Z,0
2017-10-13T00:27:40.334Z,0
2017-10-13T00:28:40.332Z,0
2017-10-13T00:29:40.315Z,0
2017-10-13T00:30:40.825Z,0
2017-10-13T00:31:39.943Z,0
2017-10-13T00:32:40.605Z,0
2017-10-13T00:33:40.256Z,0
2017-10-13T00:34:40.237Z,0
2017-10-13T00:35:39.881Z,0
2017-10-13T00:36:39.870Z,0
2017-10-13T00:37:40.188Z,0
2017-10-13T00:38:40.171Z,0
2017-10-13T00:39:40.158Z,0
2017-10-13T00:40:40.492Z,0
2017-10-13T00:41:39.790Z,0
2017-10-13T00:42:40.134Z,0
2017-10-13T00:43:39.762Z,0
2017-10-13T00:44:40.084Z,0
2017-10-13T00:45:40.079Z,0
2017-10-13T00:46:39.718Z,0
2017-10-13T00:47:39.702Z,0
2017-10-13T00:48:39.683Z,0
2017-10-13T00:49:40.337Z,0
2017-10-13T00:50:39.993Z,0
2017-10-13T00:51:40.315Z,0
2017-10-13T00:52:39.964Z,0
2017-10-13T00:53:39.942Z,0
2017-10-13T00:54:39.593Z,0
2017-10-13T00:55:39.913Z,0
2017-10-13T00:56:39.588Z,0
2017-10-13T00:57:39.544Z,0
2017-10-13T00:58:39.865Z,0
2017-10-13T00:59:39.851Z,0
2017-10-13T01:00:39.832Z,0
2017-10-13T01:01:40.158Z,0
2017-10-13T01:02:40.162Z,0
2017-10-13T01:03:39.788Z,0
2017-10-13T01:04:39.772Z,0
2017-10-13T01:05:39.092Z,0
2017-10-13T01:06:39.788Z,0
2017-10-13T01:07:39.753Z,0
2017-10-13T01:08:40.063Z,0
2017-10-13T01:09:39.702Z,0
2017-10-13T01:10:39.350Z,0
2017-10-13T01:11:39.337Z,0
2017-10-13T01:12:39.990Z,0
2017-10-13T01:13:39.322Z,0
2017-10-13T01:14:39.621Z,0
2017-10-13T01:15:39.273Z,0
2017-10-13T01:16:39.259Z,0
2017-10-13T01:17:39.253Z,0
2017-10-13T01:18:39.901Z,0
2017-10-13T01:19:39.562Z,0
2017-10-13T01:20:39.549Z,0
2017-10-13T01:21:39.526Z,0
2017-10-13T01:22:39.174Z,0
2017-10-13T01:23:39.487Z,0
2017-10-13T01:24:39.472Z,0
2017-10-13T01:25:39.122Z,0
2017-10-13T01:26:39.440Z,0
2017-10-13T01:27:39.425Z,0
2017-10-13T01:28:39.407Z,0
2017-10-13T01:29:39.402Z,0
2017-10-13T01:30:39.378Z,0
2017-10-13T01:31:39.027Z,0
2017-10-13T01:32:39.017Z,0
2017-10-13T01:33:39.009Z,0
2017-10-13T01:34:39.651Z,0
2017-10-13T01:35:38.971Z,0
2017-10-13T01:36:38.953Z,0
2017-10-13T01:37:39.605Z,0
2017-10-13T01:38:39.255Z,0
2017-10-13T01:39:38.909Z,0
2017-10-13T01:40:38.903Z,0
2017-10-13T01:41:38.892Z,0
2017-10-13T01:42:38.867Z,0
2017-10-13T01:43:39.516Z,0
2017-10-13T01:44:39.174Z,0
2017-10-13T01:45:39.163Z,0
2017-10-13T01:46:39.133Z,0
2017-10-13T01:47:38.793Z,0
2017-10-13T01:48:39.433Z,0
2017-10-13T01:49:39.088Z,0
2017-10-13T01:50:38.743Z,0
2017-10-13T01:51:39.406Z,0
2017-10-13T01:52:38.710Z,0
2017-10-13T01:53:38.695Z,0
2017-10-13T01:54:38.691Z,0
2017-10-13T01:55:38.674Z,0
2017-10-13T01:56:38.650Z,0
2017-10-13T01:57:38.639Z,0
2017-10-13T01:58:39.308Z,0
2017-10-13T01:59:38.939Z,0
2017-10-13T02:00:38.589Z,0
2017-10-13T02:01:39.257Z,0
2017-10-13T02:02:38.563Z,0
2017-10-13T02:03:38.880Z,0
2017-10-13T02:04:38.860Z,0
2017-10-13T02:05:39.178Z,0
2017-10-13T02:06:38.831Z,0
2017-10-13T02:07:38.811Z,0
2017-10-13T02:08:39.135Z,0
2017-10-13T02:09:39.123Z,0
2017-10-13T02:10:39.119Z,0
2017-10-13T02:11:38.808Z,0
2017-10-13T02:12:39.067Z,0
2017-10-13T02:13:38.400Z,0
2017-10-13T02:14:38.401Z,0
2017-10-13T02:15:38.353Z,0
2017-10-13T02:16:38.343Z,0
2017-10-13T02:17:37.993Z,0
2017-10-13T02:18:38.978Z,0
2017-10-13T02:19:38.628Z,0
2017-10-13T02:20:38.615Z,0
2017-10-13T02:21:37.932Z,0
2017-10-13T02:22:38.582Z,0
2017-10-13T02:23:38.240Z,0
2017-10-13T02:24:38.881Z,0
2017-10-13T02:25:38.531Z,0
2017-10-13T02:26:38.185Z,0
2017-10-13T02:27:38.504Z,0
2017-10-13T02:28:38.158Z,0
2017-10-13T02:29:38.136Z,0
2017-10-13T02:30:38.127Z,0
2017-10-13T02:31:38.109Z,0
2017-10-13T02:32:38.767Z,0
2017-10-13T02:33:38.094Z,0
2017-10-13T02:34:37.734Z,0
2017-10-13T02:35:38.404Z,0
2017-10-13T02:36:38.719Z,0
2017-10-13T02:37:38.350Z,0
2017-10-13T02:38:38.343Z,0
2017-10-13T02:39:38.326Z,0
2017-10-13T02:40:38.009Z,0
2017-10-13T02:41:37.640Z,0
2017-10-13T02:42:37.620Z,0
2017-10-13T02:43:37.590Z,0
2017-10-13T02:44:37.911Z,0
2017-10-13T02:45:38.224Z,0
2017-10-13T02:46:37.876Z,0
2017-10-13T02:47:37.527Z,0
2017-10-13T02:48:38.201Z,0
2017-10-13T02:49:37.835Z,0
2017-10-13T02:50:38.161Z,0
2017-10-13T02:51:38.134Z,0
2017-10-13T02:52:38.130Z,0
2017-10-13T02:53:38.447Z,0
2017-10-13T02:54:38.438Z,0
2017-10-13T02:55:38.437Z,0
2017-10-13T02:56:37.727Z,0
2017-10-13T02:57:38.042Z,0
2017-10-13T02:58:37.690Z,0
2017-10-13T02:59:38.349Z,0
2017-10-13T03:00:38.011Z,0
2017-10-13T03:01:37.982Z,0
2017-10-13T03:02:37.628Z,0
2017-10-13T03:03:37.951Z,0
2017-10-13T03:04:37.601Z,0
2017-10-13T03:05:38.268Z,0
2017-10-13T03:06:37.571Z,0
2017-10-13T03:07:38.222Z,0
2017-10-13T03:08:37.868Z,0
2017-10-13T03:09:37.883Z,0
2017-10-13T03:10:37.512Z,0
2017-10-13T03:11:37.498Z,0
2017-10-13T03:12:37.845Z,0
2017-10-13T03:13:37.457Z,0
2017-10-13T03:14:37.452Z,0
2017-10-13T03:15:38.120Z,0
2017-10-13T03:16:37.423Z,0
2017-10-13T03:17:37.740Z,0
2017-10-13T03:18:37.733Z,0
2017-10-13T03:19:37.065Z,0
2017-10-13T03:20:37.353Z,0
2017-10-13T03:21:37.354Z,0
2017-10-13T03:22:37.712Z,0
2017-10-13T03:23:37.321Z,0
2017-10-13T03:24:37.299Z,0
2017-10-13T03:25:36.942Z,0
2017-10-13T03:26:37.264Z,0
2017-10-13T03:27:36.932Z,0
2017-10-13T03:28:37.240Z,0
2017-10-13T03:29:36.884Z,0
2017-10-13T03:30:37.217Z,0
2017-10-13T03:31:37.182Z,0
2017-10-13T03:32:37.510Z,0
2017-10-13T03:33:37.484Z,0
2017-10-13T03:34:37.473Z,0
2017-10-13T03:35:37.460Z,0
2017-10-13T03:36:37.111Z,0
2017-10-13T03:37:37.107Z,0
2017-10-13T03:38:37.416Z,0
2017-10-13T03:39:37.731Z,0
2017-10-13T03:40:37.388Z,0
2017-10-13T03:41:37.362Z,0
2017-10-13T03:42:37.343Z,0
2017-10-13T03:43:37.669Z,0
2017-10-13T03:44:37.318Z,0
2017-10-13T03:45:37.643Z,0
2017-10-13T03:46:36.950Z,0
2017-10-13T03:47:36.949Z,0
2017-10-13T03:48:37.255Z,0
2017-10-13T03:49:37.237Z,0
2017-10-13T03:50:37.227Z,0
2017-10-13T03:51:36.875Z,0
2017-10-13T03:52:37.190Z,0
2017-10-13T03:53:37.511Z,0
2017-10-13T03:54:37.172Z,0
2017-10-13T03:55:37.506Z,0
2017-10-13T03:56:37.472Z,0
2017-10-13T03:57:37.114Z,0
2017-10-13T03:58:37.098Z,0
2017-10-13T03:59:36.430Z,0
2017-10-13T04:00:36.734Z,0
2017-10-13T04:01:36.736Z,0
2017-10-13T04:02:36.372Z,0
2017-10-13T04:03:36.354Z,0
2017-10-13T04:04:36.674Z,0
2017-10-13T04:05:36.321Z,0
2017-10-13T04:06:36.968Z,0
2017-10-13T04:07:37.286Z,0
2017-10-13T04:08:36.992Z,0
2017-10-13T04:09:36.594Z,0
2017-10-13T04:10:36.584Z,0
2017-10-13T04:11:36.906Z,0
2017-10-13T04:12:37.214Z,0
2017-10-13T04:13:37.203Z,0
2017-10-13T04:14:37.188Z,0
2017-10-13T04:15:36.492Z,0
2017-10-13T04:16:36.836Z,0
2017-10-13T04:17:37.137Z,0
2017-10-13T04:18:36.791Z,0
2017-10-13T04:19:36.451Z,0
2017-10-13T04:20:36.083Z,0
2017-10-13T04:21:36.732Z,0
2017-10-13T04:22:37.053Z,0
2017-10-13T04:23:36.910Z,0
2017-10-13T04:24:36.357Z,0
2017-10-13T04:25:36.677Z,0
2017-10-13T04:26:36.328Z,0
2017-10-13T04:27:36.643Z,0
2017-10-13T04:28:36.629Z,0
2017-10-13T04:29:36.972Z,0
2017-10-13T04:30:36.260Z,0
2017-10-13T04:31:36.576Z,0
2017-10-13T04:32:35.920Z,0
2017-10-13T04:33:36.888Z,0
2017-10-13T04:34:36.884Z,0
2017-10-13T04:35:36.518Z,0
2017-10-13T04:36:36.179Z,0
2017-10-13T04:37:35.813Z,0
2017-10-13T04:38:36.479Z,0
2017-10-13T04:39:36.788Z,0
2017-10-13T04:40:36.103Z,0
2017-10-13T04:41:36.425Z,0
2017-10-13T04:42:36.076Z,0
2017-10-13T04:43:36.391Z,0
2017-10-13T04:44:36.068Z,0
2017-10-13T04:45:36.046Z,0
2017-10-13T04:46:36.033Z,0
2017-10-13T04:47:36.014Z,0
2017-10-13T04:48:36.312Z,0
2017-10-13T04:49:36.314Z,0
2017-10-13T04:50:35.951Z,0
2017-10-13T04:51:36.603Z,0
2017-10-13T04:52:36.594Z,0
2017-10-13T04:53:36.565Z,0
2017-10-13T04:54:36.222Z,0
2017-10-13T04:55:36.201Z,0
2017-10-13T04:56:35.857Z,0
2017-10-13T04:57:35.838Z,0
2017-10-13T04:58:36.485Z,0
2017-10-13T04:59:36.474Z,0
2017-10-13T05:00:35.788Z,0
2017-10-13T05:01:35.783Z,0
2017-10-13T05:02:36.118Z,0
2017-10-13T05:03:36.076Z,0
2017-10-13T05:04:36.064Z,0
2017-10-13T05:05:35.395Z,0
2017-10-13T05:06:36.042Z,0
2017-10-13T05:07:36.403Z,0
2017-10-13T05:08:35.335Z,0
2017-10-13T05:09:35.654Z,0
2017-10-13T05:10:36.305Z,0
2017-10-13T05:11:36.295Z,0
2017-10-13T05:12:35.605Z,0
2017-10-13T05:13:36.261Z,0
2017-10-13T05:14:36.238Z,0
2017-10-13T05:15:35.904Z,0
2017-10-13T05:16:35.540Z,0
2017-10-13T05:17:36.204Z,0
2017-10-13T05:18:35.854Z,0
2017-10-13T05:19:35.836Z,0
2017-10-13T05:20:35.155Z,0
2017-10-13T05:21:35.467Z,0
2017-10-13T05:22:35.801Z,0
2017-10-13T05:23:36.152Z,0
2017-10-13T05:24:35.419Z,0
2017-10-13T05:25:35.071Z,4
2017-10-13T05:26:35.060Z,0
2017-10-13T05:27:36.061Z,4
2017-10-13T05:28:35.362Z,4
2017-10-13T05:29:35.683Z,8
2017-10-13T05:30:35.337Z,8
2017-10-13T05:31:35.325Z,8
2017-10-13T05:32:35.978Z,4
2017-10-13T05:33:35.285Z,4
2017-10-13T05:34:35.607Z,8
2017-10-13T05:35:34.918Z,8
2017-10-13T05:36:35.253Z,8
2017-10-13T05:37:35.927Z,8
2017-10-13T05:38:35.210Z,12
2017-10-13T05:39:35.189Z,12
2017-10-13T05:40:35.509Z,16
2017-10-13T05:41:35.165Z,16
2017-10-13T05:42:35.485Z,20
2017-10-13T05:43:35.798Z,24
2017-10-13T05:44:35.122Z,32
2017-10-13T05:45:35.097Z,36
2017-10-13T05:46:35.758Z,44
2017-10-13T05:47:35.404Z,60
2017-10-13T05:48:35.385Z,72
2017-10-13T05:49:35.378Z,84
2017-10-13T05:50:35.028Z,96
2017-10-13T05:51:35.011Z,104
2017-10-13T05:52:35.325Z,108
2017-10-13T05:53:35.322Z,96
2017-10-13T05:54:34.971Z,92
2017-10-13T05:55:35.614Z,116
2017-10-13T05:56:34.941Z,136
2017-10-13T05:57:34.919Z,160
2017-10-13T05:58:34.918Z,172
2017-10-13T05:59:34.939Z,188
2017-10-13T06:00:35.548Z,212
2017-10-13T06:01:35.202Z,224
2017-10-13T06:02:35.185Z,252
2017-10-13T06:03:34.844Z,280
2017-10-13T06:04:35.152Z,296
2017-10-13T06:05:34.517Z,300
2017-10-13T06:06:34.801Z,316
2017-10-13T06:07:35.449Z,380
2017-10-13T06:08:35.090Z,416
2017-10-13T06:09:35.074Z,456
2017-10-13T06:10:34.737Z,480
2017-10-13T06:11:35.055Z,512
2017-10-13T06:12:35.373Z,516
2017-10-13T06:13:35.009Z,512
2017-10-13T06:14:34.344Z,560
2017-10-13T06:15:34.701Z,516
2017-10-13T06:16:34.965Z,520
2017-10-13T06:17:34.957Z,468
2017-10-13T06:18:34.945Z,540
2017-10-13T06:19:34.594Z,524
2017-10-13T06:20:35.248Z,588
2017-10-13T06:21:34.574Z,624
2017-10-13T06:22:34.547Z,600
2017-10-13T06:23:35.403Z,568
2017-10-13T06:24:35.190Z,624
2017-10-13T06:25:35.208Z,568
2017-10-13T06:26:35.165Z,596
2017-10-13T06:27:35.136Z,696
2017-10-13T06:28:34.461Z,656
2017-10-13T06:29:35.120Z,608
2017-10-13T06:30:34.428Z,616
2017-10-13T06:31:34.751Z,704
2017-10-13T06:32:34.403Z,728
2017-10-13T06:33:34.388Z,692
2017-10-13T06:34:34.726Z,696
2017-10-13T06:35:35.025Z,720
2017-10-13T06:36:34.686Z,688
2017-10-13T06:37:34.666Z,636
2017-10-13T06:38:34.650Z,608
2017-10-13T06:39:34.297Z,588
2017-10-13T06:40:34.280Z,568
2017-10-13T06:41:33.938Z,644
2017-10-13T06:42:34.922Z,700
2017-10-13T06:43:34.568Z,656
2017-10-13T06:44:34.908Z,600
2017-10-13T06:45:34.205Z,616
2017-10-13T06:46:34.529Z,564
2017-10-13T06:47:34.508Z,572
2017-10-13T06:48:34.170Z,552
2017-10-13T06:49:34.145Z,564
2017-10-13T06:50:34.177Z,648
2017-10-13T06:51:33.784Z,720
2017-10-13T06:52:34.118Z,736
2017-10-13T06:53:34.759Z,896
2017-10-13T06:54:34.738Z,1120
2017-10-13T06:55:33.731Z,1200
2017-10-13T06:56:34.729Z,1300
2017-10-13T06:57:33.701Z,1448
2017-10-13T06:58:34.351Z,1556
2017-10-13T06:59:34.005Z,1708
2017-10-13T07:00:34.008Z,1488
2017-10-13T07:01:33.983Z,1256
2017-10-13T07:02:34.302Z,1232
2017-10-13T07:03:34.632Z,1216
2017-10-13T07:04:34.289Z,1204
2017-10-13T07:05:33.590Z,1224
2017-10-13T07:06:33.914Z,1268
2017-10-13T07:07:33.892Z,1404
2017-10-13T07:08:34.222Z,1516
2017-10-13T07:09:33.523Z,1472
2017-10-13T07:10:34.185Z,1404
2017-10-13T07:11:34.495Z,1420
2017-10-13T07:12:34.154Z,1440
2017-10-13T07:13:34.148Z,1544
2017-10-13T07:14:34.121Z,1784
2017-10-13T07:15:34.100Z,1764
2017-10-13T07:16:33.754Z,1500
2017-10-13T07:17:34.082Z,1436
2017-10-13T07:18:33.744Z,1516
2017-10-13T07:19:34.392Z,1464
2017-10-13T07:20:34.371Z,1612
2017-10-13T07:21:34.045Z,2248
2017-10-13T07:22:34.013Z,3116
2017-10-13T07:23:33.990Z,3256
2017-10-13T07:24:33.972Z,3216
2017-10-13T07:25:33.629Z,3004
2017-10-13T07:26:34.276Z,2744
2017-10-13T07:27:33.598Z,2364
2017-10-13T07:28:33.924Z,1848
2017-10-13T07:29:34.238Z,1464
2017-10-13T07:30:33.892Z,1340
2017-10-13T07:31:33.933Z,1748
2017-10-13T07:32:34.197Z,2364
2017-10-13T07:33:33.860Z,2628
2017-10-13T07:34:33.852Z,2552
2017-10-13T07:35:33.493Z,2416
2017-10-13T07:36:33.471Z,2524
2017-10-13T07:37:33.473Z,2660
2017-10-13T07:38:33.774Z,3048
2017-10-13T07:39:33.441Z,3444
2017-10-13T07:40:33.419Z,3648
2017-10-13T07:41:33.738Z,3488
2017-10-13T07:42:33.724Z,3060
2017-10-13T07:43:34.055Z,2800
2017-10-13T07:44:33.713Z,3276
2017-10-13T07:45:34.017Z,3340
2017-10-13T07:46:33.674Z,3748
2017-10-13T07:47:33.317Z,4324
2017-10-13T07:48:33.310Z,4840
2017-10-13T07:49:33.291Z,2748
2017-10-13T07:50:33.615Z,1568
2017-10-13T07:51:33.320Z,1824
2017-10-13T07:52:33.585Z,2332
2017-10-13T07:53:33.261Z,3460
2017-10-13T07:54:33.575Z,3488
2017-10-13T07:55:33.567Z,3652
2017-10-13T07:56:33.194Z,3744
2017-10-13T07:57:32.862Z,3872
2017-10-13T07:58:33.833Z,2804
2017-10-13T07:59:33.498Z,3112
2017-10-13T08:00:33.809Z,3004
2017-10-13T08:01:33.131Z,2588
2017-10-13T08:02:33.445Z,2116
2017-10-13T08:03:33.768Z,2212
2017-10-13T08:04:33.090Z,2508
2017-10-13T08:05:33.090Z,2600
2017-10-13T08:06:33.061Z,3700
2017-10-13T08:07:33.376Z,4564
2017-10-13T08:08:33.699Z,3752
2017-10-13T08:09:33.352Z,3736
2017-10-13T08:10:32.679Z,4560
2017-10-13T08:11:33.330Z,5184
2017-10-13T08:12:33.313Z,4980
2017-10-13T08:13:32.970Z,4088
2017-10-13T08:14:33.290Z,4156
2017-10-13T08:15:32.936Z,3928
2017-10-13T08:16:32.929Z,3876
2017-10-13T08:17:32.681Z,3456
2017-10-13T08:18:33.231Z,3392
2017-10-13T08:19:33.250Z,3472
2017-10-13T08:20:33.544Z,5736
2017-10-13T08:21:32.527Z,6064
2017-10-13T08:22:32.849Z,5028
2017-10-13T08:23:33.706Z,5308
2017-10-13T08:24:32.819Z,4340
2017-10-13T08:25:33.145Z,4052
2017-10-13T08:26:32.794Z,4276
2017-10-13T08:27:33.452Z,3728
2017-10-13T08:28:32.438Z,3508
2017-10-13T08:29:32.757Z,4272
2017-10-13T08:30:32.739Z,4076
2017-10-13T08:31:33.430Z,5820
2017-10-13T08:32:33.065Z,5756
2017-10-13T08:33:32.717Z,6916
2017-10-13T08:34:32.360Z,7464
2017-10-13T08:35:32.678Z,7680
2017-10-13T08:36:32.994Z,5608
2017-10-13T08:37:33.324Z,5884
2017-10-13T08:38:32.642Z,4840
2017-10-13T08:39:33.301Z,4532
2017-10-13T08:40:33.284Z,5980
2017-10-13T08:41:32.946Z,6568
2017-10-13T08:42:32.610Z,6876
2017-10-13T08:43:32.587Z,6984
2017-10-13T08:44:32.568Z,6588
2017-10-13T08:45:32.547Z,7016
2017-10-13T08:46:32.888Z,6712
2017-10-13T08:47:32.526Z,5808
2017-10-13T08:48:32.853Z,5396
2017-10-13T08:49:32.834Z,4996
2017-10-13T08:50:32.839Z,5376
2017-10-13T08:51:32.813Z,5748
2017-10-13T08:52:32.807Z,5928
2017-10-13T08:53:32.801Z,6788
2017-10-13T08:54:32.771Z,7044
2017-10-13T08:55:32.427Z,6796
2017-10-13T08:56:32.759Z,5980
2017-10-13T08:57:32.073Z,5644
2017-10-13T08:58:32.407Z,6268
2017-10-13T08:59:32.379Z,5844
2017-10-13T09:00:32.036Z,6896
2017-10-13T09:01:32.020Z,7560
2017-10-13T09:02:32.676Z,7768
2017-10-13T09:03:32.671Z,6376
2017-10-13T09:04:32.988Z,4976
2017-10-13T09:05:32.971Z,4972
2017-10-13T09:06:32.294Z,5240
2017-10-13T09:08:32.276Z,7852
2017-10-13T09:09:32.935Z,10156
2017-10-13T09:10:32.588Z,8856
2017-10-13T09:11:32.572Z,7860
2017-10-13T09:12:32.558Z,6220
2017-10-13T09:13:32.542Z,7068
2017-10-13T09:14:32.550Z,10144
2017-10-13T09:15:32.183Z,6996
2017-10-13T09:16:32.173Z,7172
2017-10-13T09:17:32.497Z,6424
2017-10-13T09:18:32.485Z,6732
2017-10-13T09:19:32.806Z,8788
2017-10-13T09:20:32.468Z,7772
2017-10-13T09:21:32.799Z,7404
2017-10-13T09:22:32.104Z,9476
2017-10-13T09:23:32.095Z,11492
2017-10-13T09:24:43.041Z,11612
2017-10-13T09:25:32.077Z,11432
2017-10-13T09:26:32.402Z,10572
2017-10-13T09:27:32.052Z,12416
2017-10-13T09:28:32.382Z,11852
2017-10-13T09:29:32.023Z,10852
2017-10-13T09:30:32.371Z,10548
2017-10-13T09:31:31.683Z,10056
2017-10-13T09:32:32.353Z,7916
2017-10-13T09:33:32.367Z,5600
2017-10-13T09:34:32.349Z,5784
2017-10-13T09:35:31.969Z,5372
2017-10-13T09:36:31.624Z,4880
2017-10-13T09:37:31.936Z,4780
2017-10-13T09:38:32.307Z,4220
2017-10-13T09:39:32.247Z,4984
2017-10-13T09:40:31.919Z,6336
2017-10-13T09:41:32.234Z,8192
2017-10-13T09:42:31.922Z,10608
2017-10-13T09:43:32.254Z,7172
2017-10-13T09:44:31.866Z,6708
2017-10-13T09:45:31.890Z,7788
2017-10-13T09:46:32.524Z,8604
2017-10-13T09:47:32.164Z,10164
2017-10-13T09:48:32.139Z,9112
2017-10-13T09:49:31.801Z,8444
2017-10-13T09:50:31.783Z,10424
2017-10-13T09:51:31.776Z,9224
2017-10-13T09:52:31.768Z,11964
2017-10-13T09:53:31.757Z,11444
2017-10-13T09:54:31.760Z,9324
2017-10-13T09:55:32.412Z,9928
2017-10-13T09:56:31.724Z,10876
2017-10-13T09:57:31.716Z,11052
2017-10-13T09:58:31.420Z,10272
2017-10-13T09:59:31.350Z,13912
2017-10-13T10:00:32.359Z,14152
2017-10-13T10:01:32.354Z,11892
2017-10-13T10:02:32.330Z,10920
2017-10-13T10:03:31.985Z,12584
2017-10-13T10:04:31.632Z,10160
2017-10-13T10:05:31.642Z,9028
2017-10-13T10:06:31.610Z,8760
2017-10-13T10:07:32.279Z,6972
2017-10-13T10:08:31.918Z,5688
2017-10-13T10:09:31.918Z,5724
2017-10-13T10:10:31.897Z,4708
2017-10-13T10:11:31.566Z,4132
2017-10-13T10:12:31.882Z,4484
2017-10-13T10:13:32.226Z,4616
2017-10-13T10:14:31.860Z,4664
2017-10-13T10:15:32.200Z,4364
2017-10-13T10:16:31.173Z,5944
2017-10-13T10:17:31.854Z,5260
2017-10-13T10:18:31.820Z,4468
2017-10-13T10:19:32.144Z,5176
2017-10-13T10:20:32.158Z,7112
2017-10-13T10:21:31.465Z,8388
2017-10-13T10:22:31.115Z,6456
2017-10-13T10:23:31.642Z,8820
2017-10-13T10:24:31.456Z,6936
2017-10-13T10:25:31.792Z,5800
2017-10-13T10:26:31.733Z,9184
2017-10-13T10:27:32.101Z,11068
2017-10-13T10:28:31.727Z,11204
2017-10-13T10:29:31.386Z,6864
2017-10-13T10:30:32.025Z,8272
2017-10-13T10:31:31.684Z,11688
2017-10-13T10:32:31.335Z,13260
2017-10-13T10:33:31.042Z,13140
2017-10-13T10:34:31.672Z,11384
2017-10-13T10:35:31.316Z,11492
2017-10-13T10:36:31.628Z,11116
2017-10-13T10:37:31.301Z,11100
2017-10-13T10:38:31.609Z,9892
2017-10-13T10:39:31.956Z,11196
2017-10-13T10:40:31.595Z,11548
2017-10-13T10:41:31.594Z,9956
2017-10-13T10:42:31.270Z,9856
2017-10-13T10:43:31.571Z,11492
2017-10-13T10:44:31.905Z,7968
2017-10-13T10:45:31.199Z,9588
2017-10-13T10:46:31.528Z,6952
2017-10-13T10:47:31.888Z,7108
2017-10-13T10:48:30.838Z,7048
2017-10-13T10:49:31.176Z,7712
2017-10-13T10:50:31.483Z,5596
2017-10-13T10:51:31.474Z,6084
2017-10-13T10:52:31.807Z,7324
2017-10-13T10:53:31.128Z,5116
2017-10-13T10:54:31.801Z,7896
2017-10-13T10:55:31.438Z,7812
2017-10-13T10:56:31.461Z,6956
2017-10-13T10:57:31.072Z,9040
2017-10-13T10:58:31.068Z,11672
2017-10-13T10:59:31.061Z,5416
2017-10-13T11:00:31.404Z,7224
2017-10-13T11:01:30.719Z,6816
2017-10-13T11:02:31.366Z,6240
2017-10-13T11:03:31.405Z,11980
2017-10-13T11:04:31.016Z,4428
2017-10-13T11:05:31.337Z,6124
2017-10-13T11:06:31.002Z,12140
2017-10-13T11:07:31.315Z,17056
2017-10-13T11:08:30.967Z,15104
2017-10-13T11:09:31.000Z,13808
2017-10-13T11:10:31.278Z,13544
2017-10-13T11:11:31.287Z,9276
2017-10-13T11:12:31.595Z,6160
2017-10-13T11:13:30.924Z,4576
2017-10-13T11:14:31.244Z,5508
2017-10-13T11:15:31.233Z,8684
2017-10-13T11:16:30.901Z,5904
2017-10-13T11:17:31.237Z,6568
2017-10-13T11:18:31.634Z,6748
2017-10-13T11:19:30.525Z,8156
2017-10-13T11:20:30.870Z,9500
2017-10-13T11:21:31.525Z,10024
2017-10-13T11:22:30.826Z,12912
2017-10-13T11:23:31.484Z,14244
2017-10-13T11:24:31.475Z,16072
2017-10-13T11:25:31.161Z,13128
2017-10-13T11:26:30.822Z,9052
2017-10-13T11:27:31.113Z,7784
2017-10-13T11:28:31.103Z,6180
2017-10-13T11:29:31.121Z,5312
2017-10-13T11:30:30.759Z,5724
2017-10-13T11:31:31.080Z,8784
2017-10-13T11:32:30.747Z,10448
2017-10-13T11:33:31.107Z,8776
2017-10-13T11:34:30.712Z,8160
2017-10-13T11:35:30.706Z,14020
2017-10-13T11:36:31.034Z,8388
2017-10-13T11:37:31.360Z,7352
2017-10-13T11:38:31.380Z,7072
2017-10-13T11:39:30.676Z,5764
2017-10-13T11:40:30.669Z,6076
2017-10-13T11:41:30.654Z,7040
2017-10-13T11:42:31.027Z,18240
2017-10-13T11:43:31.339Z,12120
2017-10-13T11:44:31.303Z,7628
2017-10-13T11:45:30.972Z,7136
2017-10-13T11:46:30.957Z,9812
2017-10-13T11:47:31.273Z,9584
2017-10-13T11:48:30.595Z,12672
2017-10-13T11:49:30.605Z,9564
2017-10-13T11:50:30.253Z,24992
2017-10-13T11:51:30.912Z,24288
2017-10-13T11:52:30.900Z,28256
2017-10-13T11:53:30.556Z,13760
2017-10-13T11:54:30.879Z,46048
2017-10-13T11:55:30.912Z,38592
2017-10-13T11:56:30.533Z,18272
2017-10-13T11:57:30.529Z,30176
2017-10-13T11:58:30.510Z,34560
2017-10-13T11:59:30.498Z,29504
2017-10-13T12:00:30.490Z,14952
2017-10-13T12:01:30.155Z,9152
2017-10-13T12:02:30.812Z,6900
2017-10-13T12:03:30.803Z,9300
2017-10-13T12:04:30.799Z,52512
2017-10-13T12:05:30.140Z,51488
2017-10-13T12:06:30.455Z,12704
2017-10-13T12:07:30.798Z,13996
2017-10-13T12:08:30.786Z,14644
2017-10-13T12:09:30.109Z,18720
2017-10-13T12:10:30.778Z,17536
2017-10-13T12:11:30.089Z,14368
2017-10-13T12:12:30.779Z,38208
2017-10-13T12:13:30.412Z,40000
2017-10-13T12:14:31.067Z,37792
2017-10-13T12:15:30.733Z,17120
2017-10-13T12:16:30.746Z,17072
2017-10-13T12:17:30.729Z,55264
2017-10-13T12:18:30.377Z,57696
2017-10-13T12:19:30.705Z,42176
2017-10-13T12:20:30.370Z,10280
2017-10-13T12:21:30.696Z,12376
2017-10-13T12:22:30.395Z,39840
2017-10-13T12:23:30.887Z,9064
2017-10-13T12:24:30.355Z,46720
2017-10-13T12:25:30.344Z,8896
2017-10-13T12:26:30.357Z,44064
2017-10-13T12:27:30.020Z,42752
2017-10-13T12:28:31.022Z,49984
2017-10-13T12:29:30.327Z,53280
2017-10-13T12:30:30.001Z,50560
2017-10-13T12:31:30.674Z,13668
2017-10-13T12:32:30.660Z,39584
2017-10-13T12:33:30.651Z,48128
2017-10-13T12:34:30.970Z,46080
2017-10-13T12:35:30.644Z,43808
2017-10-13T12:36:30.634Z,40384
2017-10-13T12:37:30.962Z,43936
2017-10-13T12:38:30.959Z,46944
2017-10-13T12:39:30.638Z,48448
2017-10-13T12:40:30.620Z,49152
2017-10-13T12:41:30.291Z,51008
2017-10-13T12:42:30.615Z,49152
2017-10-13T12:43:29.948Z,48320
2017-10-13T12:44:30.294Z,44736
2017-10-13T12:45:30.945Z,47680
2017-10-13T12:46:30.612Z,21024
2017-10-13T12:47:30.946Z,44288
2017-10-13T12:48:29.940Z,39936
2017-10-13T12:49:29.936Z,38912
2017-10-13T12:50:30.608Z,29920
2017-10-13T12:51:30.285Z,45472
2017-10-13T12:52:29.931Z,24576
2017-10-13T12:53:30.608Z,49088
2017-10-13T12:54:30.266Z,46368
2017-10-13T12:55:30.261Z,11680
2017-10-13T12:56:30.591Z,9660
2017-10-13T12:57:30.599Z,9672
2017-10-13T12:58:30.681Z,10996
2017-10-13T12:59:30.271Z,9928
2017-10-13T13:00:30.247Z,10528
2017-10-13T13:01:30.586Z,20672
2017-10-13T13:02:30.597Z,12452
2017-10-13T13:03:30.579Z,39392
2017-10-13T13:04:30.572Z,9408
2017-10-13T13:05:29.914Z,8960
2017-10-13T13:06:30.561Z,7584
2017-10-13T13:07:30.227Z,6412
2017-10-13T13:08:30.561Z,6616
2017-10-13T13:09:30.225Z,5936
2017-10-13T13:10:30.550Z,4992
2017-10-13T13:11:30.875Z,5156
2017-10-13T13:12:30.548Z,7324
2017-10-13T13:13:30.869Z,28928
2017-10-13T13:14:30.881Z,29248
2017-10-13T13:15:29.859Z,35328
2017-10-13T13:16:29.856Z,36768
2017-10-13T13:17:30.184Z,32576
2017-10-13T13:18:30.512Z,32576
2017-10-13T13:19:30.565Z,27936
2017-10-13T13:20:30.168Z,28608
2017-10-13T13:21:30.488Z,30944
2017-10-13T13:22:30.160Z,29056
2017-10-13T13:23:30.488Z,30624
2017-10-13T13:24:30.541Z,27296
2017-10-13T13:25:29.806Z,27008
2017-10-13T13:26:30.133Z,31168
2017-10-13T13:27:30.480Z,34016
2017-10-13T13:28:30.131Z,21888
2017-10-13T13:29:29.788Z,38112
2017-10-13T13:30:30.786Z,40544
2017-10-13T13:31:30.116Z,13800
2017-10-13T13:32:30.785Z,13608
2017-10-13T13:33:29.778Z,37056
2017-10-13T13:34:30.436Z,16568
2017-10-13T13:35:30.102Z,32800
2017-10-13T13:36:30.105Z,11020
2017-10-13T13:37:30.433Z,8312
2017-10-13T13:38:30.435Z,9336
2017-10-13T13:39:30.088Z,14240
2017-10-13T13:40:30.415Z,16320
2017-10-13T13:41:30.750Z,17312
2017-10-13T13:42:30.405Z,12228
2017-10-13T13:43:30.737Z,10088
2017-10-13T13:44:30.400Z,11052
2017-10-13T13:45:30.396Z,12896
2017-10-13T13:46:30.390Z,14720
2017-10-13T13:47:29.718Z,16384
2017-10-13T13:48:30.711Z,16160
2017-10-13T13:49:30.053Z,16576
2017-10-13T13:50:30.744Z,16192
2017-10-13T13:51:30.366Z,15488